sensor_id;sensor_type;location;lat;lon;timestamp;P1;durP1;ratioP1;P2;durP2;ratioP2
24585;SDS011;12743;52.262;6.172;2024-02-26T00:00:31;7.82;;;4.20;;
24585;SDS011;12743;52.262;6.172;2024-02-26T00:02:58;9.10;;;4.73;;
24585;SDS011;12743;52.262;6.172;2024-02-26T00:05:25;9.10;;;4.97;;
24585;SDS011;12743;52.262;6.172;2024-02-26T00:07:52;8.73;;;4.60;;
24585;SDS011;12743;52.262;6.172;2024-02-26T00:10:19;8.02;;;4.10;;
24585;SDS011;12743;52.262;6.172;2024-02-26T00:12:45;9.43;;;4.53;;
24585;SDS011;12743;52.262;6.172;2024-02-26T00:15:12;7.63;;;4.50;;
24585;SDS011;12743;52.262;6.172;2024-02-26T00:17:39;8.00;;;4.80;;
24585;SDS011;12743;52.262;6.172;2024-02-26T00:20:06;10.23;;;5.40;;
24585;SDS011;12743;52.262;6.172;2024-02-26T00:22:36;8.43;;;4.93;;
24585;SDS011;12743;52.262;6.172;2024-02-26T00:25:03;7.93;;;4.10;;
24585;SDS011;12743;52.262;6.172;2024-02-26T00:27:30;8.93;;;4.33;;
24585;SDS011;12743;52.262;6.172;2024-02-26T00:29:57;9.07;;;5.30;;
24585;SDS011;12743;52.262;6.172;2024-02-26T00:32:24;7.78;;;4.45;;
24585;SDS011;12743;52.262;6.172;2024-02-26T00:34:50;8.82;;;4.90;;
24585;SDS011;12743;52.262;6.172;2024-02-26T00:37:18;8.20;;;4.88;;
24585;SDS011;12743;52.262;6.172;2024-02-26T00:39:45;9.33;;;5.10;;
24585;SDS011;12743;52.262;6.172;2024-02-26T00:42:13;9.07;;;4.80;;
24585;SDS011;12743;52.262;6.172;2024-02-26T00:44:39;9.63;;;5.00;;
24585;SDS011;12743;52.262;6.172;2024-02-26T00:47:06;9.65;;;5.07;;
24585;SDS011;12743;52.262;6.172;2024-02-26T00:49:33;10.23;;;5.07;;
24585;SDS011;12743;52.262;6.172;2024-02-26T00:52:00;8.63;;;4.70;;
24585;SDS011;12743;52.262;6.172;2024-02-26T00:54:26;9.52;;;4.78;;
24585;SDS011;12743;52.262;6.172;2024-02-26T00:56:53;9.52;;;5.40;;
24585;SDS011;12743;52.262;6.172;2024-02-26T00:59:20;9.75;;;4.93;;
24585;SDS011;12743;52.262;6.172;2024-02-26T01:01:46;9.73;;;5.25;;
24585;SDS011;12743;52.262;6.172;2024-02-26T01:04:13;7.97;;;4.40;;
24585;SDS011;12743;52.262;6.172;2024-02-26T01:06:40;10.27;;;5.18;;
24585;SDS011;12743;52.262;6.172;2024-02-26T01:09:07;9.95;;;4.65;;
24585;SDS011;12743;52.262;6.172;2024-02-26T01:11:34;10.07;;;4.97;;
24585;SDS011;12743;52.262;6.172;2024-02-26T01:14:01;9.32;;;4.60;;
24585;SDS011;12743;52.262;6.172;2024-02-26T01:16:28;9.53;;;4.90;;
24585;SDS011;12743;52.262;6.172;2024-02-26T01:18:55;11.13;;;5.10;;
24585;SDS011;12743;52.262;6.172;2024-02-26T01:21:22;8.88;;;4.65;;
24585;SDS011;12743;52.262;6.172;2024-02-26T01:23:49;9.40;;;5.30;;
24585;SDS011;12743;52.262;6.172;2024-02-26T01:26:16;10.07;;;4.72;;
24585;SDS011;12743;52.262;6.172;2024-02-26T01:28:42;8.57;;;4.73;;
24585;SDS011;12743;52.262;6.172;2024-02-26T01:31:09;12.00;;;5.07;;
24585;SDS011;12743;52.262;6.172;2024-02-26T01:33:36;10.63;;;5.00;;
24585;SDS011;12743;52.262;6.172;2024-02-26T01:36:03;11.13;;;5.40;;
24585;SDS011;12743;52.262;6.172;2024-02-26T01:38:30;10.60;;;5.15;;
24585;SDS011;12743;52.262;6.172;2024-02-26T01:40:57;9.63;;;4.47;;
24585;SDS011;12743;52.262;6.172;2024-02-26T01:43:23;9.55;;;5.35;;
24585;SDS011;12743;52.262;6.172;2024-02-26T01:45:50;8.63;;;4.70;;
24585;SDS011;12743;52.262;6.172;2024-02-26T01:48:17;10.90;;;4.97;;
24585;SDS011;12743;52.262;6.172;2024-02-26T01:50:44;10.38;;;5.03;;
24585;SDS011;12743;52.262;6.172;2024-02-26T01:53:10;10.43;;;5.20;;
24585;SDS011;12743;52.262;6.172;2024-02-26T01:55:37;9.73;;;4.80;;
24585;SDS011;12743;52.262;6.172;2024-02-26T01:58:06;11.40;;;5.20;;
24585;SDS011;12743;52.262;6.172;2024-02-26T02:00:33;9.77;;;4.57;;
24585;SDS011;12743;52.262;6.172;2024-02-26T02:03:00;10.02;;;5.32;;
24585;SDS011;12743;52.262;6.172;2024-02-26T02:05:28;12.17;;;4.97;;
24585;SDS011;12743;52.262;6.172;2024-02-26T02:07:55;12.40;;;5.18;;
24585;SDS011;12743;52.262;6.172;2024-02-26T02:10:21;10.52;;;5.22;;
24585;SDS011;12743;52.262;6.172;2024-02-26T02:12:52;10.52;;;5.10;;
24585;SDS011;12743;52.262;6.172;2024-02-26T02:15:19;10.43;;;5.50;;
24585;SDS011;12743;52.262;6.172;2024-02-26T02:17:46;10.10;;;5.20;;
24585;SDS011;12743;52.262;6.172;2024-02-26T02:20:17;12.55;;;6.38;;
24585;SDS011;12743;52.262;6.172;2024-02-26T02:22:45;11.43;;;5.63;;
24585;SDS011;12743;52.262;6.172;2024-02-26T02:25:12;12.45;;;5.60;;
24585;SDS011;12743;52.262;6.172;2024-02-26T02:27:39;12.75;;;5.65;;
24585;SDS011;12743;52.262;6.172;2024-02-26T02:30:07;12.20;;;6.00;;
24585;SDS011;12743;52.262;6.172;2024-02-26T02:32:35;9.80;;;5.10;;
24585;SDS011;12743;52.262;6.172;2024-02-26T02:35:03;12.88;;;5.75;;
24585;SDS011;12743;52.262;6.172;2024-02-26T02:37:30;12.20;;;5.63;;
24585;SDS011;12743;52.262;6.172;2024-02-26T02:39:57;11.60;;;6.05;;
24585;SDS011;12743;52.262;6.172;2024-02-26T02:42:24;11.30;;;5.87;;
24585;SDS011;12743;52.262;6.172;2024-02-26T02:44:51;11.75;;;5.35;;
24585;SDS011;12743;52.262;6.172;2024-02-26T02:47:18;11.75;;;5.68;;
24585;SDS011;12743;52.262;6.172;2024-02-26T02:49:44;12.68;;;5.60;;
24585;SDS011;12743;52.262;6.172;2024-02-26T02:52:11;12.93;;;6.45;;
24585;SDS011;12743;52.262;6.172;2024-02-26T02:54:38;11.10;;;5.83;;
24585;SDS011;12743;52.262;6.172;2024-02-26T02:57:08;11.75;;;5.75;;
24585;SDS011;12743;52.262;6.172;2024-02-26T02:59:35;10.52;;;5.18;;
24585;SDS011;12743;52.262;6.172;2024-02-26T03:02:03;10.82;;;6.07;;
24585;SDS011;12743;52.262;6.172;2024-02-26T03:04:29;12.45;;;5.70;;
24585;SDS011;12743;52.262;6.172;2024-02-26T03:06:56;10.90;;;5.60;;
24585;SDS011;12743;52.262;6.172;2024-02-26T03:09:24;11.00;;;5.60;;
24585;SDS011;12743;52.262;6.172;2024-02-26T03:11:51;11.82;;;5.00;;
24585;SDS011;12743;52.262;6.172;2024-02-26T03:14:17;10.85;;;5.60;;
24585;SDS011;12743;52.262;6.172;2024-02-26T03:16:44;11.10;;;5.25;;
24585;SDS011;12743;52.262;6.172;2024-02-26T03:19:13;11.20;;;5.60;;
24585;SDS011;12743;52.262;6.172;2024-02-26T03:21:41;11.73;;;5.30;;
24585;SDS011;12743;52.262;6.172;2024-02-26T03:24:07;10.55;;;4.97;;
24585;SDS011;12743;52.262;6.172;2024-02-26T03:26:38;12.27;;;5.60;;
24585;SDS011;12743;52.262;6.172;2024-02-26T03:29:05;13.95;;;6.00;;
24585;SDS011;12743;52.262;6.172;2024-02-26T03:31:32;11.70;;;5.87;;
24585;SDS011;12743;52.262;6.172;2024-02-26T03:33:58;11.82;;;6.32;;
24585;SDS011;12743;52.262;6.172;2024-02-26T03:36:25;14.18;;;5.30;;
24585;SDS011;12743;52.262;6.172;2024-02-26T03:38:53;10.50;;;4.97;;
24585;SDS011;12743;52.262;6.172;2024-02-26T03:41:19;10.85;;;4.90;;
24585;SDS011;12743;52.262;6.172;2024-02-26T03:43:46;10.47;;;5.37;;
24585;SDS011;12743;52.262;6.172;2024-02-26T03:46:13;12.38;;;6.20;;
24585;SDS011;12743;52.262;6.172;2024-02-26T03:48:40;12.38;;;5.80;;
24585;SDS011;12743;52.262;6.172;2024-02-26T03:51:08;11.60;;;5.43;;
24585;SDS011;12743;52.262;6.172;2024-02-26T03:53:36;11.30;;;5.70;;
24585;SDS011;12743;52.262;6.172;2024-02-26T03:56:04;11.13;;;5.40;;
24585;SDS011;12743;52.262;6.172;2024-02-26T03:58:31;12.45;;;6.47;;
24585;SDS011;12743;52.262;6.172;2024-02-26T04:00:59;11.23;;;6.05;;
24585;SDS011;12743;52.262;6.172;2024-02-26T04:03:26;12.05;;;5.85;;
24585;SDS011;12743;52.262;6.172;2024-02-26T04:05:53;12.95;;;6.28;;
24585;SDS011;12743;52.262;6.172;2024-02-26T04:08:19;11.70;;;5.50;;
24585;SDS011;12743;52.262;6.172;2024-02-26T04:10:46;11.57;;;5.97;;
24585;SDS011;12743;52.262;6.172;2024-02-26T04:13:13;9.93;;;4.82;;
24585;SDS011;12743;52.262;6.172;2024-02-26T04:15:40;11.57;;;5.43;;
24585;SDS011;12743;52.262;6.172;2024-02-26T04:18:06;10.73;;;5.90;;
24585;SDS011;12743;52.262;6.172;2024-02-26T04:20:33;11.03;;;5.97;;
24585;SDS011;12743;52.262;6.172;2024-02-26T04:23:00;11.70;;;5.57;;
24585;SDS011;12743;52.262;6.172;2024-02-26T04:25:27;11.93;;;5.95;;
24585;SDS011;12743;52.262;6.172;2024-02-26T04:27:55;13.10;;;5.97;;
24585;SDS011;12743;52.262;6.172;2024-02-26T04:30:21;10.68;;;5.38;;
24585;SDS011;12743;52.262;6.172;2024-02-26T04:32:48;10.77;;;6.23;;
24585;SDS011;12743;52.262;6.172;2024-02-26T04:35:15;9.95;;;5.25;;
24585;SDS011;12743;52.262;6.172;2024-02-26T04:37:41;10.05;;;5.53;;
24585;SDS011;12743;52.262;6.172;2024-02-26T04:40:08;11.48;;;5.82;;
24585;SDS011;12743;52.262;6.172;2024-02-26T04:42:35;11.75;;;5.82;;
24585;SDS011;12743;52.262;6.172;2024-02-26T04:45:02;14.37;;;5.70;;
24585;SDS011;12743;52.262;6.172;2024-02-26T04:47:29;10.55;;;5.82;;
24585;SDS011;12743;52.262;6.172;2024-02-26T04:49:56;11.77;;;5.68;;
24585;SDS011;12743;52.262;6.172;2024-02-26T04:52:23;12.68;;;6.85;;
24585;SDS011;12743;52.262;6.172;2024-02-26T04:54:50;11.57;;;6.20;;
24585;SDS011;12743;52.262;6.172;2024-02-26T04:57:17;10.80;;;5.77;;
24585;SDS011;12743;52.262;6.172;2024-02-26T04:59:45;12.35;;;6.97;;
24585;SDS011;12743;52.262;6.172;2024-02-26T05:02:12;13.02;;;6.47;;
24585;SDS011;12743;52.262;6.172;2024-02-26T05:04:41;12.90;;;6.68;;
24585;SDS011;12743;52.262;6.172;2024-02-26T05:07:07;11.02;;;5.28;;
24585;SDS011;12743;52.262;6.172;2024-02-26T05:09:34;12.80;;;6.10;;
24585;SDS011;12743;52.262;6.172;2024-02-26T05:12:01;11.95;;;5.88;;
24585;SDS011;12743;52.262;6.172;2024-02-26T05:14:28;14.07;;;6.50;;
24585;SDS011;12743;52.262;6.172;2024-02-26T05:16:55;12.13;;;6.35;;
24585;SDS011;12743;52.262;6.172;2024-02-26T05:19:22;12.93;;;6.55;;
24585;SDS011;12743;52.262;6.172;2024-02-26T05:21:49;17.17;;;8.67;;
24585;SDS011;12743;52.262;6.172;2024-02-26T05:24:16;15.05;;;7.50;;
24585;SDS011;12743;52.262;6.172;2024-02-26T05:26:44;12.73;;;6.47;;
24585;SDS011;12743;52.262;6.172;2024-02-26T05:29:12;11.15;;;5.65;;
24585;SDS011;12743;52.262;6.172;2024-02-26T05:31:38;15.27;;;7.50;;
24585;SDS011;12743;52.262;6.172;2024-02-26T05:34:06;14.27;;;6.63;;
24585;SDS011;12743;52.262;6.172;2024-02-26T05:36:32;12.35;;;6.30;;
24585;SDS011;12743;52.262;6.172;2024-02-26T05:39:00;13.15;;;7.53;;
24585;SDS011;12743;52.262;6.172;2024-02-26T05:41:27;16.77;;;8.18;;
24585;SDS011;12743;52.262;6.172;2024-02-26T05:43:54;15.18;;;7.55;;
24585;SDS011;12743;52.262;6.172;2024-02-26T05:46:21;15.33;;;7.70;;
24585;SDS011;12743;52.262;6.172;2024-02-26T05:48:49;14.27;;;5.85;;
24585;SDS011;12743;52.262;6.172;2024-02-26T05:51:17;15.25;;;7.65;;
24585;SDS011;12743;52.262;6.172;2024-02-26T05:53:44;17.88;;;7.70;;
24585;SDS011;12743;52.262;6.172;2024-02-26T05:56:11;19.88;;;9.18;;
24585;SDS011;12743;52.262;6.172;2024-02-26T05:58:38;18.30;;;9.23;;
24585;SDS011;12743;52.262;6.172;2024-02-26T06:01:04;15.43;;;8.40;;
24585;SDS011;12743;52.262;6.172;2024-02-26T06:03:31;17.45;;;8.90;;
24585;SDS011;12743;52.262;6.172;2024-02-26T06:05:59;16.60;;;7.47;;
24585;SDS011;12743;52.262;6.172;2024-02-26T06:08:25;17.30;;;9.20;;
24585;SDS011;12743;52.262;6.172;2024-02-26T06:10:52;15.90;;;7.50;;
24585;SDS011;12743;52.262;6.172;2024-02-26T06:13:19;13.75;;;7.18;;
24585;SDS011;12743;52.262;6.172;2024-02-26T06:15:45;16.45;;;8.18;;
24585;SDS011;12743;52.262;6.172;2024-02-26T06:18:12;19.35;;;8.15;;
24585;SDS011;12743;52.262;6.172;2024-02-26T06:20:39;18.50;;;8.32;;
24585;SDS011;12743;52.262;6.172;2024-02-26T06:23:07;17.00;;;8.50;;
24585;SDS011;12743;52.262;6.172;2024-02-26T06:25:33;17.60;;;8.80;;
24585;SDS011;12743;52.262;6.172;2024-02-26T06:28:00;18.13;;;9.20;;
24585;SDS011;12743;52.262;6.172;2024-02-26T06:30:27;17.05;;;8.93;;
24585;SDS011;12743;52.262;6.172;2024-02-26T06:32:54;18.38;;;8.90;;
24585;SDS011;12743;52.262;6.172;2024-02-26T06:35:20;18.40;;;8.77;;
24585;SDS011;12743;52.262;6.172;2024-02-26T06:37:47;18.52;;;9.00;;
24585;SDS011;12743;52.262;6.172;2024-02-26T06:40:16;18.30;;;9.15;;
24585;SDS011;12743;52.262;6.172;2024-02-26T06:42:43;19.17;;;8.43;;
24585;SDS011;12743;52.262;6.172;2024-02-26T06:45:14;17.83;;;8.98;;
24585;SDS011;12743;52.262;6.172;2024-02-26T06:47:41;20.30;;;9.00;;
24585;SDS011;12743;52.262;6.172;2024-02-26T06:50:11;18.33;;;7.93;;
24585;SDS011;12743;52.262;6.172;2024-02-26T06:52:38;18.95;;;8.40;;
24585;SDS011;12743;52.262;6.172;2024-02-26T06:55:05;16.63;;;8.18;;
24585;SDS011;12743;52.262;6.172;2024-02-26T06:57:34;17.45;;;7.78;;
24585;SDS011;12743;52.262;6.172;2024-02-26T07:00:01;18.77;;;9.07;;
24585;SDS011;12743;52.262;6.172;2024-02-26T07:02:30;18.80;;;8.65;;
24585;SDS011;12743;52.262;6.172;2024-02-26T07:04:57;17.17;;;7.35;;
24585;SDS011;12743;52.262;6.172;2024-02-26T07:07:24;20.13;;;9.95;;
24585;SDS011;12743;52.262;6.172;2024-02-26T07:09:51;19.38;;;8.77;;
24585;SDS011;12743;52.262;6.172;2024-02-26T07:12:18;23.27;;;9.07;;
24585;SDS011;12743;52.262;6.172;2024-02-26T07:14:47;19.65;;;9.60;;
24585;SDS011;12743;52.262;6.172;2024-02-26T07:17:15;23.90;;;8.98;;
24585;SDS011;12743;52.262;6.172;2024-02-26T07:19:42;20.13;;;9.18;;
24585;SDS011;12743;52.262;6.172;2024-02-26T07:22:09;24.70;;;9.20;;
24585;SDS011;12743;52.262;6.172;2024-02-26T07:24:36;22.93;;;10.67;;
24585;SDS011;12743;52.262;6.172;2024-02-26T07:27:03;24.80;;;10.02;;
24585;SDS011;12743;52.262;6.172;2024-02-26T07:29:30;22.05;;;9.38;;
24585;SDS011;12743;52.262;6.172;2024-02-26T07:31:57;23.20;;;11.05;;
24585;SDS011;12743;52.262;6.172;2024-02-26T07:34:24;20.98;;;9.48;;
24585;SDS011;12743;52.262;6.172;2024-02-26T07:36:56;25.47;;;10.87;;
24585;SDS011;12743;52.262;6.172;2024-02-26T07:39:22;26.13;;;10.45;;
24585;SDS011;12743;52.262;6.172;2024-02-26T07:41:49;24.60;;;10.80;;
24585;SDS011;12743;52.262;6.172;2024-02-26T07:44:19;26.27;;;11.95;;
24585;SDS011;12743;52.262;6.172;2024-02-26T07:46:46;21.42;;;9.40;;
24585;SDS011;12743;52.262;6.172;2024-02-26T07:49:13;22.77;;;9.27;;
24585;SDS011;12743;52.262;6.172;2024-02-26T07:51:40;24.30;;;9.63;;
24585;SDS011;12743;52.262;6.172;2024-02-26T07:54:07;24.05;;;9.80;;
24585;SDS011;12743;52.262;6.172;2024-02-26T07:56:34;25.60;;;10.02;;
24585;SDS011;12743;52.262;6.172;2024-02-26T07:59:01;24.60;;;9.95;;
24585;SDS011;12743;52.262;6.172;2024-02-26T08:01:28;24.87;;;9.57;;
24585;SDS011;12743;52.262;6.172;2024-02-26T08:03:55;27.30;;;11.10;;
24585;SDS011;12743;52.262;6.172;2024-02-26T08:06:22;25.83;;;9.98;;
24585;SDS011;12743;52.262;6.172;2024-02-26T08:08:50;21.92;;;9.07;;
24585;SDS011;12743;52.262;6.172;2024-02-26T08:11:17;26.33;;;9.43;;
24585;SDS011;12743;52.262;6.172;2024-02-26T08:13:43;21.73;;;9.27;;
24585;SDS011;12743;52.262;6.172;2024-02-26T08:16:10;23.08;;;8.30;;
24585;SDS011;12743;52.262;6.172;2024-02-26T08:18:38;24.35;;;10.52;;
24585;SDS011;12743;52.262;6.172;2024-02-26T08:21:05;22.13;;;10.48;;
24585;SDS011;12743;52.262;6.172;2024-02-26T08:23:32;21.50;;;8.80;;
24585;SDS011;12743;52.262;6.172;2024-02-26T08:25:59;19.40;;;8.17;;
24585;SDS011;12743;52.262;6.172;2024-02-26T08:28:25;19.48;;;7.93;;
24585;SDS011;12743;52.262;6.172;2024-02-26T08:30:52;19.80;;;8.20;;
24585;SDS011;12743;52.262;6.172;2024-02-26T08:33:19;21.83;;;8.65;;
24585;SDS011;12743;52.262;6.172;2024-02-26T08:35:46;22.30;;;8.10;;
24585;SDS011;12743;52.262;6.172;2024-02-26T08:38:12;18.10;;;7.87;;
24585;SDS011;12743;52.262;6.172;2024-02-26T08:40:39;18.92;;;7.88;;
24585;SDS011;12743;52.262;6.172;2024-02-26T08:43:06;19.60;;;8.25;;
24585;SDS011;12743;52.262;6.172;2024-02-26T08:45:32;17.95;;;8.32;;
24585;SDS011;12743;52.262;6.172;2024-02-26T08:47:59;16.45;;;7.40;;
24585;SDS011;12743;52.262;6.172;2024-02-26T08:50:26;16.93;;;8.03;;
24585;SDS011;12743;52.262;6.172;2024-02-26T08:52:53;18.90;;;7.88;;
24585;SDS011;12743;52.262;6.172;2024-02-26T08:55:20;17.25;;;7.50;;
24585;SDS011;12743;52.262;6.172;2024-02-26T08:57:47;16.75;;;6.60;;
24585;SDS011;12743;52.262;6.172;2024-02-26T09:00:14;17.33;;;7.57;;
24585;SDS011;12743;52.262;6.172;2024-02-26T09:02:42;16.50;;;7.47;;
24585;SDS011;12743;52.262;6.172;2024-02-26T09:05:11;15.68;;;6.47;;
24585;SDS011;12743;52.262;6.172;2024-02-26T09:07:38;15.27;;;6.65;;
24585;SDS011;12743;52.262;6.172;2024-02-26T09:10:05;16.83;;;6.95;;
24585;SDS011;12743;52.262;6.172;2024-02-26T09:12:34;17.38;;;7.03;;
24585;SDS011;12743;52.262;6.172;2024-02-26T09:15:01;16.70;;;7.37;;
24585;SDS011;12743;52.262;6.172;2024-02-26T09:17:28;14.65;;;6.93;;
24585;SDS011;12743;52.262;6.172;2024-02-26T09:19:55;13.65;;;6.25;;
24585;SDS011;12743;52.262;6.172;2024-02-26T09:22:22;16.92;;;7.53;;
24585;SDS011;12743;52.262;6.172;2024-02-26T09:24:49;15.48;;;7.03;;
24585;SDS011;12743;52.262;6.172;2024-02-26T09:27:17;15.67;;;6.53;;
24585;SDS011;12743;52.262;6.172;2024-02-26T09:29:44;14.10;;;5.90;;
24585;SDS011;12743;52.262;6.172;2024-02-26T09:32:11;14.05;;;6.30;;
24585;SDS011;12743;52.262;6.172;2024-02-26T09:34:39;14.65;;;6.95;;
24585;SDS011;12743;52.262;6.172;2024-02-26T09:37:07;16.27;;;6.80;;
24585;SDS011;12743;52.262;6.172;2024-02-26T09:39:46;16.43;;;6.43;;
24585;SDS011;12743;52.262;6.172;2024-02-26T09:42:13;15.43;;;6.78;;
24585;SDS011;12743;52.262;6.172;2024-02-26T09:44:40;18.33;;;7.18;;
24585;SDS011;12743;52.262;6.172;2024-02-26T09:47:11;14.25;;;6.22;;
24585;SDS011;12743;52.262;6.172;2024-02-26T09:49:39;13.57;;;6.70;;
24585;SDS011;12743;52.262;6.172;2024-02-26T09:52:06;14.40;;;6.60;;
24585;SDS011;12743;52.262;6.172;2024-02-26T09:54:35;14.10;;;6.13;;
24585;SDS011;12743;52.262;6.172;2024-02-26T09:57:03;13.05;;;6.00;;
24585;SDS011;12743;52.262;6.172;2024-02-26T09:59:36;15.32;;;8.00;;
24585;SDS011;12743;52.262;6.172;2024-02-26T10:02:11;15.07;;;6.03;;
24585;SDS011;12743;52.262;6.172;2024-02-26T10:04:39;14.30;;;6.70;;
24585;SDS011;12743;52.262;6.172;2024-02-26T10:07:11;13.13;;;5.88;;
24585;SDS011;12743;52.262;6.172;2024-02-26T10:09:39;11.13;;;5.53;;
24585;SDS011;12743;52.262;6.172;2024-02-26T10:12:07;16.35;;;6.80;;
24585;SDS011;12743;52.262;6.172;2024-02-26T10:14:35;14.57;;;6.28;;
24585;SDS011;12743;52.262;6.172;2024-02-26T10:17:02;10.27;;;4.57;;
24585;SDS011;12743;52.262;6.172;2024-02-26T10:19:32;13.85;;;5.93;;
24585;SDS011;12743;52.262;6.172;2024-02-26T10:22:03;15.25;;;5.40;;
24585;SDS011;12743;52.262;6.172;2024-02-26T10:24:30;14.27;;;5.72;;
24585;SDS011;12743;52.262;6.172;2024-02-26T10:26:57;13.88;;;5.80;;
24585;SDS011;12743;52.262;6.172;2024-02-26T10:29:24;12.80;;;5.27;;
24585;SDS011;12743;52.262;6.172;2024-02-26T10:31:51;12.23;;;5.32;;
24585;SDS011;12743;52.262;6.172;2024-02-26T10:34:19;13.55;;;5.82;;
24585;SDS011;12743;52.262;6.172;2024-02-26T10:36:46;13.30;;;6.13;;
24585;SDS011;12743;52.262;6.172;2024-02-26T10:39:19;11.52;;;5.47;;
24585;SDS011;12743;52.262;6.172;2024-02-26T10:41:47;15.83;;;6.40;;
24585;SDS011;12743;52.262;6.172;2024-02-26T10:44:13;12.98;;;5.35;;
24585;SDS011;12743;52.262;6.172;2024-02-26T10:46:44;13.85;;;5.40;;
24585;SDS011;12743;52.262;6.172;2024-02-26T10:49:13;13.65;;;5.55;;
24585;SDS011;12743;52.262;6.172;2024-02-26T10:51:49;13.45;;;5.05;;
24585;SDS011;12743;52.262;6.172;2024-02-26T10:54:21;13.63;;;5.00;;
24585;SDS011;12743;52.262;6.172;2024-02-26T10:56:48;12.48;;;5.47;;
24585;SDS011;12743;52.262;6.172;2024-02-26T10:59:16;12.10;;;5.38;;
24585;SDS011;12743;52.262;6.172;2024-02-26T11:01:47;14.65;;;5.28;;
24585;SDS011;12743;52.262;6.172;2024-02-26T11:04:16;13.30;;;5.65;;
24585;SDS011;12743;52.262;6.172;2024-02-26T11:06:44;13.00;;;4.57;;
24585;SDS011;12743;52.262;6.172;2024-02-26T11:09:12;11.27;;;4.97;;
24585;SDS011;12743;52.262;6.172;2024-02-26T11:11:39;11.60;;;4.90;;
24585;SDS011;12743;52.262;6.172;2024-02-26T11:14:06;13.27;;;5.85;;
24585;SDS011;12743;52.262;6.172;2024-02-26T11:16:35;14.40;;;6.47;;
24585;SDS011;12743;52.262;6.172;2024-02-26T11:19:04;12.90;;;5.53;;
24585;SDS011;12743;52.262;6.172;2024-02-26T11:21:33;11.02;;;4.60;;
24585;SDS011;12743;52.262;6.172;2024-02-26T11:24:13;13.80;;;6.43;;
24585;SDS011;12743;52.262;6.172;2024-02-26T11:26:48;11.60;;;5.40;;
24585;SDS011;12743;52.262;6.172;2024-02-26T11:29:17;12.68;;;5.13;;
24585;SDS011;12743;52.262;6.172;2024-02-26T11:31:48;11.17;;;5.47;;
24585;SDS011;12743;52.262;6.172;2024-02-26T11:34:15;10.13;;;4.53;;
24585;SDS011;12743;52.262;6.172;2024-02-26T11:36:43;11.20;;;5.10;;
24585;SDS011;12743;52.262;6.172;2024-02-26T11:39:11;12.30;;;4.85;;
24585;SDS011;12743;52.262;6.172;2024-02-26T11:41:39;11.35;;;4.25;;
24585;SDS011;12743;52.262;6.172;2024-02-26T11:44:06;12.37;;;5.00;;
24585;SDS011;12743;52.262;6.172;2024-02-26T11:46:38;11.93;;;5.53;;
24585;SDS011;12743;52.262;6.172;2024-02-26T11:51:55;12.52;;;5.88;;
24585;SDS011;12743;52.262;6.172;2024-02-26T11:57:58;10.30;;;4.67;;
24585;SDS011;12743;52.262;6.172;2024-02-26T12:02:45;12.00;;;5.10;;
24585;SDS011;12743;52.262;6.172;2024-02-26T12:05:20;13.05;;;6.10;;
24585;SDS011;12743;52.262;6.172;2024-02-26T12:07:54;11.63;;;5.35;;
24585;SDS011;12743;52.262;6.172;2024-02-26T12:10:26;14.93;;;5.70;;
24585;SDS011;12743;52.262;6.172;2024-02-26T12:15:33;10.30;;;4.90;;
24585;SDS011;12743;52.262;6.172;2024-02-26T12:18:04;11.18;;;4.35;;
24585;SDS011;12743;52.262;6.172;2024-02-26T12:20:33;10.93;;;4.93;;
24585;SDS011;12743;52.262;6.172;2024-02-26T12:23:00;11.40;;;5.77;;
24585;SDS011;12743;52.262;6.172;2024-02-26T12:25:28;13.02;;;5.18;;
24585;SDS011;12743;52.262;6.172;2024-02-26T12:27:57;12.20;;;5.72;;
24585;SDS011;12743;52.262;6.172;2024-02-26T12:30:23;13.45;;;5.53;;
24585;SDS011;12743;52.262;6.172;2024-02-26T12:32:52;10.45;;;4.97;;
24585;SDS011;12743;52.262;6.172;2024-02-26T12:35:27;12.60;;;4.93;;
24585;SDS011;12743;52.262;6.172;2024-02-26T12:37:54;11.73;;;5.03;;
24585;SDS011;12743;52.262;6.172;2024-02-26T12:40:20;13.23;;;5.28;;
24585;SDS011;12743;52.262;6.172;2024-02-26T12:42:47;12.23;;;5.70;;
24585;SDS011;12743;52.262;6.172;2024-02-26T12:45:14;12.20;;;5.63;;
24585;SDS011;12743;52.262;6.172;2024-02-26T12:47:43;11.33;;;5.07;;
24585;SDS011;12743;52.262;6.172;2024-02-26T12:50:12;11.13;;;4.95;;
24585;SDS011;12743;52.262;6.172;2024-02-26T12:52:40;10.88;;;5.07;;
24585;SDS011;12743;52.262;6.172;2024-02-26T12:55:08;11.32;;;5.10;;
24585;SDS011;12743;52.262;6.172;2024-02-26T12:57:36;11.10;;;5.45;;
24585;SDS011;12743;52.262;6.172;2024-02-26T13:00:07;10.47;;;4.73;;
24585;SDS011;12743;52.262;6.172;2024-02-26T13:02:36;11.40;;;5.30;;
24585;SDS011;12743;52.262;6.172;2024-02-26T13:05:06;10.70;;;4.85;;
24585;SDS011;12743;52.262;6.172;2024-02-26T13:07:34;11.10;;;5.28;;
24585;SDS011;12743;52.262;6.172;2024-02-26T13:10:07;12.02;;;4.90;;
24585;SDS011;12743;52.262;6.172;2024-02-26T13:12:34;11.27;;;5.37;;
24585;SDS011;12743;52.262;6.172;2024-02-26T13:15:01;10.15;;;4.75;;
24585;SDS011;12743;52.262;6.172;2024-02-26T13:17:32;9.85;;;4.53;;
24585;SDS011;12743;52.262;6.172;2024-02-26T13:19:59;11.98;;;4.78;;
24585;SDS011;12743;52.262;6.172;2024-02-26T13:22:26;9.80;;;4.40;;
24585;SDS011;12743;52.262;6.172;2024-02-26T13:24:53;9.43;;;4.30;;
24585;SDS011;12743;52.262;6.172;2024-02-26T13:27:22;10.82;;;4.25;;
24585;SDS011;12743;52.262;6.172;2024-02-26T13:32:52;10.95;;;4.70;;
24585;SDS011;12743;52.262;6.172;2024-02-26T13:35:18;9.73;;;3.80;;
24585;SDS011;12743;52.262;6.172;2024-02-26T13:37:45;9.90;;;4.40;;
24585;SDS011;12743;52.262;6.172;2024-02-26T13:40:12;11.38;;;5.10;;
24585;SDS011;12743;52.262;6.172;2024-02-26T13:42:39;13.32;;;4.40;;
24585;SDS011;12743;52.262;6.172;2024-02-26T13:45:06;9.80;;;3.42;;
24585;SDS011;12743;52.262;6.172;2024-02-26T13:47:33;12.27;;;4.63;;
24585;SDS011;12743;52.262;6.172;2024-02-26T13:50:01;9.47;;;3.23;;
24585;SDS011;12743;52.262;6.172;2024-02-26T13:52:28;9.63;;;4.32;;
24585;SDS011;12743;52.262;6.172;2024-02-26T13:54:55;9.55;;;4.18;;
24585;SDS011;12743;52.262;6.172;2024-02-26T13:57:21;10.27;;;4.38;;
24585;SDS011;12743;52.262;6.172;2024-02-26T13:59:48;9.63;;;4.32;;
24585;SDS011;12743;52.262;6.172;2024-02-26T14:02:16;9.63;;;4.00;;
24585;SDS011;12743;52.262;6.172;2024-02-26T14:04:43;9.13;;;4.03;;
24585;SDS011;12743;52.262;6.172;2024-02-26T14:07:11;10.88;;;4.90;;
24585;SDS011;12743;52.262;6.172;2024-02-26T14:09:38;9.43;;;4.05;;
24585;SDS011;12743;52.262;6.172;2024-02-26T14:12:15;11.02;;;3.97;;
24585;SDS011;12743;52.262;6.172;2024-02-26T14:14:43;8.57;;;4.00;;
24585;SDS011;12743;52.262;6.172;2024-02-26T14:17:11;9.10;;;4.10;;
24585;SDS011;12743;52.262;6.172;2024-02-26T14:19:39;9.70;;;4.32;;
24585;SDS011;12743;52.262;6.172;2024-02-26T14:22:12;10.07;;;4.30;;
24585;SDS011;12743;52.262;6.172;2024-02-26T14:24:39;9.50;;;3.90;;
24585;SDS011;12743;52.262;6.172;2024-02-26T14:27:07;8.90;;;3.87;;
24585;SDS011;12743;52.262;6.172;2024-02-26T14:29:35;9.20;;;4.30;;
24585;SDS011;12743;52.262;6.172;2024-02-26T14:32:01;11.02;;;3.95;;
24585;SDS011;12743;52.262;6.172;2024-02-26T14:34:29;8.23;;;3.70;;
24585;SDS011;12743;52.262;6.172;2024-02-26T14:36:57;8.65;;;3.40;;
24585;SDS011;12743;52.262;6.172;2024-02-26T14:39:24;7.97;;;3.13;;
24585;SDS011;12743;52.262;6.172;2024-02-26T14:41:51;8.38;;;3.60;;
24585;SDS011;12743;52.262;6.172;2024-02-26T14:44:22;8.27;;;3.88;;
24585;SDS011;12743;52.262;6.172;2024-02-26T14:46:48;8.80;;;3.72;;
24585;SDS011;12743;52.262;6.172;2024-02-26T14:49:15;8.18;;;3.88;;
24585;SDS011;12743;52.262;6.172;2024-02-26T14:51:42;8.90;;;3.57;;